Time;durP1;ratioP1;P1;durP2;ratioP2;P2;SDS_P1;SDS_P2;PMS_P1;PMS_P2;Temp;Humidity;BMP_temperature;BMP_pressure;BME280_temperature;BME280_humidity;BME280_pressure;Samples;Min_cycle;Max_cycle;Signal;HPM_P1;HPM_P2
2023/02/15 00:01:10;;;;;;;18.50;13.00;;;1.40;99.90;;;;;;4995037;28;20295;-54
2023/02/15 00:03:37;;;;;;;19.93;13.63;;;1.40;99.90;;;;;;4994732;28;20204;-56
2023/02/15 00:06:04;;;;;;;19.77;13.80;;;1.40;99.90;;;;;;4994670;28;20227;-55
2023/02/15 00:08:31;;;;;;;17.53;13.10;;;1.40;99.90;;;;;;4994706;28;20208;-56
2023/02/15 00:11:06;;;;;;;18.03;12.97;;;1.30;99.90;;;;;;4994782;28;20330;-56
2023/02/15 00:13:32;;;;;;;18.13;12.83;;;1.30;99.90;;;;;;4994621;28;20230;-56
2023/02/15 00:16:02;;;;;;;19.23;12.47;;;1.40;99.90;;;;;;4994582;28;20239;-55
2023/02/15 00:18:31;;;;;;;16.63;11.53;;;1.50;99.90;;;;;;4994964;28;20219;-56
2023/02/15 00:20:58;;;;;;;20.00;12.73;;;1.40;99.90;;;;;;4994975;28;20660;-56
2023/02/15 00:23:26;;;;;;;17.77;12.83;;;1.40;99.90;;;;;;4994780;28;20203;-56
2023/02/15 00:25:53;;;;;;;19.23;12.33;;;1.50;99.90;;;;;;4994696;28;20277;-56
2023/02/15 00:28:21;;;;;;;17.27;12.63;;;1.50;99.90;;;;;;4994499;28;20228;-56
2023/02/15 00:30:48;;;;;;;18.00;12.27;;;1.50;99.90;;;;;;4994694;28;20212;-54
2023/02/15 00:33:15;;;;;;;20.20;12.70;;;1.50;99.90;;;;;;4994977;28;20278;-55
2023/02/15 00:35:43;;;;;;;16.80;11.40;;;1.50;99.90;;;;;;4995374;28;20267;-56
2023/02/15 00:38:09;;;;;;;16.43;11.60;;;1.50;99.90;;;;;;4996027;28;20211;-56
2023/02/15 00:40:36;;;;;;;15.27;10.90;;;1.50;99.90;;;;;;4996956;28;20645;-56
2023/02/15 00:43:03;;;;;;;17.23;12.23;;;1.50;99.90;;;;;;4996126;28;20254;-56
2023/02/15 00:45:29;;;;;;;17.50;12.03;;;1.50;99.90;;;;;;4994770;28;20235;-57
2023/02/15 00:47:56;;;;;;;14.20;10.97;;;1.50;99.90;;;;;;4994141;28;20207;-56
2023/02/15 00:50:23;;;;;;;15.63;10.73;;;1.60;99.90;;;;;;4994463;28;20212;-56
2023/02/15 00:52:51;;;;;;;19.60;11.80;;;1.60;99.90;;;;;;4993892;28;20219;-57
2023/02/15 00:55:17;;;;;;;15.63;11.73;;;1.50;99.90;;;;;;4993115;28;20715;-56
2023/02/15 00:57:44;;;;;;;16.43;11.80;;;1.50;99.90;;;;;;4993581;28;20212;-57
2023/02/15 01:00:12;;;;;;;16.80;11.47;;;1.50;99.90;;;;;;4994022;28;20219;-55
2023/02/15 01:02:39;;;;;;;15.83;11.13;;;1.50;99.90;;;;;;4993745;28;20207;-57
2023/02/15 01:05:07;;;;;;;16.80;11.43;;;1.40;99.90;;;;;;4993962;28;20286;-57
2023/02/15 01:07:33;;;;;;;15.70;11.60;;;1.30;99.90;;;;;;4993489;28;20648;-56
2023/02/15 01:10:02;;;;;;;16.43;11.53;;;1.20;99.90;;;;;;4994229;28;20211;-57
2023/02/15 01:12:28;;;;;;;14.23;11.00;;;1.20;99.90;;;;;;4993635;28;20231;-57
2023/02/15 01:14:55;;;;;;;17.00;11.20;;;1.10;99.90;;;;;;4994008;28;20239;-56
2023/02/15 01:17:21;;;;;;;15.77;11.07;;;0.90;99.90;;;;;;4993621;28;20234;-56
2023/02/15 01:19:48;;;;;;;16.13;10.73;;;0.80;99.90;;;;;;4993586;28;20294;-57
2023/02/15 01:22:15;;;;;;;14.50;11.13;;;0.60;99.90;;;;;;4993649;28;20207;-56
2023/02/15 01:24:42;;;;;;;17.13;10.90;;;0.60;99.90;;;;;;4993474;28;20611;-55
2023/02/15 01:27:10;;;;;;;15.17;10.97;;;0.70;99.90;;;;;;4993158;28;20211;-56
2023/02/15 01:29:37;;;;;;;16.43;10.40;;;0.80;99.90;;;;;;4993582;28;20563;-57
2023/02/15 01:32:04;;;;;;;16.23;11.60;;;0.80;99.90;;;;;;4993295;28;20207;-56
2023/02/15 01:34:31;;;;;;;15.37;11.13;;;0.70;99.90;;;;;;4993069;28;20715;-56
2023/02/15 01:36:57;;;;;;;14.53;10.90;;;0.60;99.90;;;;;;4993174;28;20208;-57
2023/02/15 01:39:24;;;;;;;17.57;12.17;;;0.70;99.90;;;;;;4993234;28;20207;-57
2023/02/15 01:41:51;;;;;;;15.23;11.00;;;0.80;99.90;;;;;;4993364;28;20219;-56
2023/02/15 01:44:51;;;;;;;14.37;10.70;;;0.80;99.90;;;;;;4993444;28;20254;-56
2023/02/15 01:47:24;;;;;;;16.37;10.90;;;0.80;99.90;;;;;;4993218;28;20215;-56
2023/02/15 01:50:04;;;;;;;14.53;10.77;;;0.80;99.90;;;;;;4993073;28;20227;-56
2023/02/15 01:52:31;;;;;;;15.03;11.23;;;0.90;99.90;;;;;;4992922;28;20211;-56
2023/02/15 01:54:59;;;;;;;19.57;11.93;;;1.00;99.90;;;;;;4992925;28;20274;-57
2023/02/15 01:57:28;;;;;;;13.63;10.70;;;1.00;99.90;;;;;;4992918;28;20211;-57
2023/02/15 01:59:59;;;;;;;15.17;10.87;;;1.10;99.90;;;;;;4992763;28;20212;-56
2023/02/15 02:02:27;;;;;;;14.47;11.23;;;1.10;99.90;;;;;;4992881;28;20212;-56
2023/02/15 02:04:57;;;;;;;15.20;11.23;;;1.10;99.90;;;;;;4992686;28;20704;-56
2023/02/15 02:07:28;;;;;;;13.67;9.77;;;1.10;99.90;;;;;;4992813;28;20208;-56
2023/02/15 02:09:55;;;;;;;15.23;10.13;;;1.10;99.90;;;;;;4992568;28;20279;-56
2023/02/15 02:12:23;;;;;;;14.83;10.37;;;1.00;99.90;;;;;;4992675;28;20215;-56
2023/02/15 02:14:52;;;;;;;12.77;10.03;;;1.00;99.90;;;;;;4992665;28;20227;-57
2023/02/15 02:17:28;;;;;;;13.97;10.23;;;0.90;99.90;;;;;;4992359;28;20626;-55
2023/02/15 02:20:20;;;;;;;14.50;9.93;;;0.90;99.90;;;;;;4992715;28;20218;-56
2023/02/15 02:23:24;;;;;;;15.50;10.87;;;0.90;99.90;;;;;;4992900;28;20203;-56
2023/02/15 02:26:38;;;;;;;15.03;10.40;;;1.00;99.90;;;;;;4992597;28;20227;-56
2023/02/15 02:29:39;;;;;;;16.63;10.83;;;1.00;99.90;;;;;;4992389;28;20207;-57
2023/02/15 02:32:39;;;;;;;12.87;9.83;;;0.90;99.90;;;;;;4992686;28;20265;-56
2023/02/15 02:35:12;;;;;;;16.37;11.40;;;0.80;99.90;;;;;;4959569;28;20227;-57
2023/02/15 02:37:49;;;;;;;16.47;10.50;;;0.70;99.90;;;;;;4991918;28;20211;-56
2023/02/15 02:40:24;;;;;;;14.13;9.90;;;0.70;99.90;;;;;;4992234;28;20215;-55
2023/02/15 02:42:59;;;;;;;13.57;10.03;;;0.80;99.90;;;;;;4992560;28;20386;-56
2023/02/15 02:45:29;;;;;;;15.10;10.63;;;0.80;99.90;;;;;;5031445;23;20229;-62
2023/02/15 02:48:00;;;;;;;13.77;10.20;;;0.80;99.90;;;;;;5051017;28;20205;-62
2023/02/15 02:50:30;;;;;;;13.83;10.50;;;0.80;99.90;;;;;;5051131;28;20216;-62
2023/02/15 02:52:58;;;;;;;15.87;10.57;;;0.80;99.90;;;;;;5051414;28;20221;-62
2023/02/15 02:55:31;;;;;;;16.03;11.00;;;0.80;99.90;;;;;;5050862;28;20747;-63
2023/02/15 02:58:02;;;;;;;16.33;10.73;;;0.90;99.90;;;;;;5051424;28;20205;-63
2023/02/15 03:00:32;;;;;;;15.60;10.93;;;0.90;99.90;;;;;;5051272;28;20213;-62
2023/02/15 03:03:04;;;;;;;16.17;11.33;;;1.00;99.90;;;;;;5050949;28;20202;-62
2023/02/15 03:05:35;;;;;;;13.73;10.43;;;1.00;99.90;;;;;;5051148;28;20225;-62
2023/02/15 03:08:05;;;;;;;15.53;11.27;;;0.90;99.90;;;;;;5050918;28;20593;-62
2023/02/15 03:10:35;;;;;;;15.93;11.00;;;0.80;99.90;;;;;;5051025;28;20248;-62
2023/02/15 03:13:02;;;;;;;16.60;10.07;;;0.70;99.90;;;;;;5051035;28;20228;-63
2023/02/15 03:16:25;;;;;;;13.70;10.37;;;0.70;99.90;;;;;;5050959;28;20350;-63
2023/02/15 03:18:23;;;;;;;15.63;11.10;;;0.60;99.90;;;;;;5052514;28;20212;-63
2023/02/15 03:20:53;;;;;;;15.47;11.20;;;0.70;99.90;;;;;;5055728;28;20224;-63
2023/02/15 03:23:23;;;;;;;17.20;12.07;;;0.70;99.90;;;;;;5055190;28;20205;-62
2023/02/15 03:25:53;;;;;;;18.27;11.87;;;0.70;99.90;;;;;;5055092;28;20692;-62
2023/02/15 03:28:24;;;;;;;16.70;11.87;;;0.80;99.90;;;;;;5055009;28;20296;-62
2023/02/15 03:30:55;;;;;;;17.40;11.60;;;0.70;99.90;;;;;;5055062;28;20205;-62
2023/02/15 03:33:24;;;;;;;17.27;11.73;;;0.70;99.90;;;;;;5055055;28;20646;-62
2023/02/15 03:36:01;;;;;;;17.80;11.60;;;0.60;99.90;;;;;;5054807;28;20598;-62
2023/02/15 03:38:33;;;;;;;17.80;12.07;;;0.70;99.90;;;;;;5054936;28;20212;-62
2023/02/15 03:41:10;;;;;;;18.77;11.77;;;0.70;99.90;;;;;;5055305;28;20217;-62
2023/02/15 03:43:45;;;;;;;15.27;11.20;;;0.70;99.90;;;;;;5056131;28;20623;-62
2023/02/15 03:46:16;;;;;;;14.67;11.37;;;0.70;99.90;;;;;;5057674;28;20240;-62
2023/02/15 03:48:48;;;;;;;17.63;11.63;;;0.70;99.90;;;;;;5057243;28;20209;-62
2023/02/15 03:51:37;;;;;;;16.63;11.97;;;0.70;99.90;;;;;;5056732;28;20223;-62
2023/02/15 03:54:08;;;;;;;17.00;11.57;;;0.70;99.90;;;;;;5054716;28;20248;-63
2023/02/15 03:56:37;;;;;;;17.47;11.47;;;0.70;99.90;;;;;;5054220;28;20226;-62
2023/02/15 04:01:59;;;;;;;18.30;11.60;;;0.60;99.90;;;;;;5055400;28;20205;-62
2023/02/15 04:04:31;;;;;;;21.97;13.07;;;0.60;99.90;;;;;;5054842;28;20213;-63
2023/02/15 04:06:59;;;;;;;18.93;12.67;;;0.60;99.90;;;;;;5053939;28;20233;-63
2023/02/15 04:12:10;;;;;;;18.17;12.43;;;0.30;99.90;;;;;;5054197;28;20331;-63
2023/02/15 04:17:21;;;;;;;22.07;13.97;;;0.00;99.90;;;;;;5053695;28;20204;-64
2023/02/15 04:25:18;;;;;;;28.33;14.47;;;0.00;99.90;;;;;;5053782;28;20567;-63
2023/02/15 04:27:48;;;;;;;29.33;14.63;;;0.00;99.90;;;;;;5053832;28;20213;-63
2023/02/15 04:30:16;;;;;;;52.73;14.43;;;0.00;99.90;;;;;;5052525;28;20210;-63
2023/02/15 04:32:43;;;;;;;29.70;14.57;;;0.00;99.90;;;;;;5053755;28;20260;-62
2023/02/15 04:35:11;;;;;;;33.60;15.63;;;0.30;99.90;;;;;;5053464;28;20229;-62
2023/02/15 04:37:40;;;;;;;27.90;15.33;;;0.00;99.90;;;;;;5053281;28;20343;-63
2023/02/15 04:40:09;;;;;;;24.10;14.20;;;0.20;99.90;;;;;;5053442;28;20209;-62
2023/02/15 04:42:36;;;;;;;25.87;15.30;;;0.20;99.90;;;;;;5053396;28;20209;-63
2023/02/15 04:45:04;;;;;;;24.03;14.07;;;0.20;99.90;;;;;;5052922;28;20221;-63
2023/02/15 04:47:30;;;;;;;21.97;13.57;;;0.20;99.90;;;;;;5053262;28;20271;-63
2023/02/15 04:49:57;;;;;;;22.43;14.07;;;0.20;99.90;;;;;;5053133;28;20255;-63
2023/02/15 04:52:24;;;;;;;19.50;13.00;;;0.20;99.90;;;;;;5053255;28;20205;-63
2023/02/15 04:54:52;;;;;;;32.13;13.40;;;0.20;99.90;;;;;;5052805;28;20317;-63
2023/02/15 04:57:19;;;;;;;23.17;12.77;;;0.20;99.90;;;;;;5052669;28;20589;-62
2023/02/15 04:59:46;;;;;;;48.10;13.57;;;0.20;99.90;;;;;;5053086;28;20210;-62
2023/02/15 05:02:12;;;;;;;45.63;13.60;;;0.20;99.90;;;;;;5052997;28;20209;-62
2023/02/15 05:04:39;;;;;;;40.00;16.67;;;0.20;99.90;;;;;;5052689;28;20206;-62
2023/02/15 05:07:06;;;;;;;30.63;13.00;;;0.30;99.90;;;;;;5052455;28;20229;-63
2023/02/15 05:09:33;;;;;;;21.63;12.43;;;0.40;99.90;;;;;;5052816;28;20255;-63
2023/02/15 05:12:00;;;;;;;25.53;12.57;;;0.30;99.90;;;;;;5052480;28;20286;-62
2023/02/15 05:14:27;;;;;;;19.40;11.97;;;0.40;99.90;;;;;;5052780;28;20225;-63
2023/02/15 05:16:54;;;;;;;35.63;13.00;;;0.30;99.90;;;;;;5052747;28;20229;-63
2023/02/15 05:19:23;;;;;;;26.77;13.13;;;0.40;99.90;;;;;;5052310;28;20301;-63
2023/02/15 05:21:49;;;;;;;37.20;13.50;;;0.40;99.90;;;;;;5052881;28;20217;-62
2023/02/15 05:29:46;;;;;;;24.00;13.47;;;0.40;99.90;;;;;;5052646;28;20228;-63
2023/02/15 05:32:13;;;;;;;20.37;13.67;;;0.40;99.90;;;;;;5052407;28;20205;-62
2023/02/15 05:34:40;;;;;;;34.07;15.27;;;0.30;99.90;;;;;;5052513;28;20269;-62
2023/02/15 05:37:08;;;;;;;24.93;13.87;;;0.40;99.90;;;;;;5051994;28;20736;-62
2023/02/15 05:39:35;;;;;;;32.37;12.93;;;0.40;99.90;;;;;;5052503;28;20206;-62
2023/02/15 05:42:03;;;;;;;37.40;13.50;;;0.40;99.90;;;;;;5051992;28;20213;-62
2023/02/15 05:44:30;;;;;;;26.50;11.93;;;0.40;99.90;;;;;;5052169;28;20287;-63
2023/02/15 05:46:57;;;;;;;31.27;13.33;;;0.30;99.90;;;;;;5051672;28;20233;-63
2023/02/15 05:49:23;;;;;;;23.43;11.70;;;0.20;99.90;;;;;;5051739;28;20281;-63
2023/02/15 05:51:50;;;;;;;18.27;11.53;;;0.30;99.90;;;;;;5051884;28;20236;-62
2023/02/15 05:54:17;;;;;;;25.83;12.17;;;0.30;99.90;;;;;;5051836;28;20639;-62
2023/02/15 05:56:43;;;;;;;37.23;12.53;;;0.40;99.90;;;;;;5052040;28;20233;-63
2023/02/15 05:59:12;;;;;;;21.87;11.17;;;0.50;99.90;;;;;;5051274;28;20791;-62
2023/02/15 06:01:39;;;;;;;25.60;13.20;;;0.50;99.90;;;;;;5051798;28;20210;-62
2023/02/15 06:04:05;;;;;;;26.10;12.37;;;0.50;99.90;;;;;;5051443;28;20220;-62
2023/02/15 06:06:34;;;;;;;35.97;12.97;;;0.50;99.90;;;;;;5051816;28;20287;-63
2023/02/15 06:09:01;;;;;;;26.80;11.80;;;0.40;99.90;;;;;;5051667;28;20206;-63
2023/02/15 06:11:27;;;;;;;21.13;12.20;;;0.40;99.90;;;;;;5051441;28;20206;-63
2023/02/15 06:13:54;;;;;;;23.43;11.60;;;0.30;99.90;;;;;;5051679;28;20225;-63
2023/02/15 06:16:22;;;;;;;18.93;11.90;;;0.30;99.90;;;;;;5051173;28;20233;-62
2023/02/15 06:18:49;;;;;;;27.07;14.10;;;0.20;99.90;;;;;;5050815;28;20202;-63
2023/02/15 06:21:17;;;;;;;16.03;10.90;;;0.20;99.90;;;;;;5051517;28;20209;-62
2023/02/15 06:23:43;;;;;;;18.80;12.90;;;0.00;99.90;;;;;;5051554;28;20213;-62
2023/02/15 06:26:10;;;;;;;18.03;11.93;;;-0.10;99.90;;;;;;5051239;28;20321;-62
2023/02/15 06:28:37;;;;;;;19.47;13.37;;;-0.10;99.90;;;;;;5050944;28;20586;-63
2023/02/15 06:31:05;;;;;;;17.50;11.10;;;0.00;99.90;;;;;;5051377;28;20296;-62
2023/02/15 06:33:34;;;;;;;15.93;11.13;;;0.10;99.90;;;;;;5052056;28;20485;-63
2023/02/15 06:36:01;;;;;;;21.97;12.93;;;0.10;99.90;;;;;;5051665;28;20257;-63
2023/02/15 06:38:28;;;;;;;19.70;12.70;;;0.00;99.90;;;;;;5051363;28;20210;-63
2023/02/15 06:40:54;;;;;;;21.73;13.77;;;0.00;99.90;;;;;;5051335;28;20259;-62
2023/02/15 06:43:21;;;;;;;24.77;15.33;;;0.00;99.90;;;;;;5051263;28;20332;-62
2023/02/15 06:45:48;;;;;;;22.70;14.90;;;0.00;99.90;;;;;;5051019;28;20244;-62
2023/02/15 06:48:14;;;;;;;24.33;14.03;;;0.00;99.90;;;;;;5050961;28;20213;-62
2023/02/15 06:50:42;;;;;;;24.93;16.47;;;0.00;99.90;;;;;;5051336;28;20217;-62
2023/02/15 06:53:09;;;;;;;20.70;13.43;;;0.00;99.90;;;;;;5050367;28;20323;-62
2023/02/15 06:55:36;;;;;;;17.87;12.57;;;0.10;99.90;;;;;;5050858;28;20236;-62
2023/02/15 06:58:03;;;;;;;16.53;10.80;;;0.20;99.90;;;;;;5050890;28;20259;-62
2023/02/15 07:00:29;;;;;;;18.80;10.93;;;0.30;99.90;;;;;;5050989;28;20308;-62
2023/02/15 07:02:58;;;;;;;16.37;11.20;;;0.40;99.90;;;;;;5051384;28;20213;-65
2023/02/15 07:05:30;;;;;;;17.73;10.30;;;0.50;99.90;;;;;;5051293;28;20284;-63
2023/02/15 07:07:58;;;;;;;15.37;10.60;;;0.70;99.90;;;;;;5051274;28;20305;-62
2023/02/15 07:10:26;;;;;;;13.60;9.13;;;0.80;99.90;;;;;;5051012;28;20262;-62
2023/02/15 07:12:51;;;;;;;12.97;9.10;;;1.00;99.90;;;;;;5051229;28;20264;-62
2023/02/15 07:15:20;;;;;;;15.50;10.70;;;1.20;99.90;;;;;;5050903;28;20728;-62
2023/02/15 07:17:48;;;;;;;12.17;9.40;;;1.60;99.90;;;;;;5050578;28;20293;-62
2023/02/15 07:20:16;;;;;;;13.37;9.60;;;2.20;99.90;;;;;;5050930;28;20217;-62
2023/02/15 07:22:44;;;;;;;11.87;9.00;;;2.80;99.90;;;;;;5051027;28;20210;-63
2023/02/15 07:25:12;;;;;;;12.23;8.70;;;3.40;99.90;;;;;;5050920;28;20790;-63
2023/02/15 07:27:40;;;;;;;15.27;8.93;;;3.90;99.90;;;;;;5050536;28;20216;-63
2023/02/15 07:30:09;;;;;;;13.00;9.50;;;4.30;99.90;;;;;;5050767;28;20265;-63
2023/02/15 07:32:36;;;;;;;15.93;10.03;;;4.30;99.90;;;;;;5050967;28;20205;-63
2023/02/15 07:35:03;;;;;;;13.17;9.53;;;4.10;99.90;;;;;;5050724;28;20221;-63
2023/02/15 07:37:29;;;;;;;12.40;9.63;;;3.90;99.90;;;;;;5050499;28;20713;-62
2023/02/15 07:39:56;;;;;;;16.07;9.80;;;3.60;99.90;;;;;;5050835;28;20711;-62
2023/02/15 07:42:24;;;;;;;17.47;9.33;;;3.40;99.90;;;;;;5050979;28;20210;-63
2023/02/15 07:44:52;;;;;;;11.00;8.40;;;3.30;99.90;;;;;;5050801;28;20240;-62
2023/02/15 07:47:19;;;;;;;14.67;9.13;;;3.30;99.90;;;;;;5050256;28;20205;-62
2023/02/15 07:49:46;;;;;;;12.07;8.60;;;3.20;99.90;;;;;;5050779;28;20417;-62
2023/02/15 07:52:13;;;;;;;9.43;7.23;;;3.00;99.90;;;;;;5050496;28;20255;-62
2023/02/15 07:54:39;;;;;;;11.07;7.47;;;2.80;99.90;;;;;;5050234;28;20549;-62
2023/02/15 07:57:06;;;;;;;11.03;8.43;;;2.60;99.90;;;;;;5050745;28;20252;-64
2023/02/15 07:59:34;;;;;;;10.57;7.63;;;2.60;99.90;;;;;;5050597;28;20233;-64
2023/02/15 08:02:01;;;;;;;14.00;9.13;;;2.50;99.90;;;;;;5050570;28;20218;-63
2023/02/15 08:04:28;;;;;;;11.17;8.07;;;2.40;99.90;;;;;;5052421;28;20665;-63
2023/02/15 08:06:55;;;;;;;11.00;8.70;;;2.50;99.90;;;;;;5054149;28;20252;-64
2023/02/15 08:09:22;;;;;;;15.00;10.07;;;2.50;99.90;;;;;;5053921;28;20224;-64
2023/02/15 08:11:49;;;;;;;10.63;8.87;;;2.50;99.90;;;;;;5054344;28;20255;-63
2023/02/15 08:14:17;;;;;;;13.30;9.67;;;2.50;99.90;;;;;;5054008;28;20205;-63
2023/02/15 08:16:47;;;;;;;13.63;9.13;;;2.50;99.90;;;;;;5053976;28;20233;-63
2023/02/15 08:19:15;;;;;;;13.17;9.70;;;2.50;99.90;;;;;;5053828;28;20206;-63
2023/02/15 08:21:44;;;;;;;13.53;9.53;;;2.20;99.90;;;;;;5054044;28;20290;-63
2023/02/15 08:24:13;;;;;;;15.57;10.33;;;2.20;99.90;;;;;;5054049;28;20604;-63
2023/02/15 08:26:41;;;;;;;13.00;9.63;;;2.40;99.90;;;;;;5054125;28;20323;-63
2023/02/15 08:29:08;;;;;;;13.47;9.63;;;2.30;99.90;;;;;;5054245;28;20202;-63
2023/02/15 08:31:37;;;;;;;10.50;8.70;;;2.30;99.90;;;;;;5053785;28;20212;-63
2023/02/15 08:34:06;;;;;;;11.60;8.03;;;2.30;99.90;;;;;;5053647;28;20209;-63
2023/02/15 08:36:32;;;;;;;10.50;8.47;;;2.40;99.90;;;;;;5053782;28;20320;-62
2023/02/15 08:39:01;;;;;;;13.83;8.67;;;2.50;99.90;;;;;;5053642;28;20743;-63
2023/02/15 08:41:30;;;;;;;9.67;8.47;;;2.70;99.90;;;;;;5053801;28;20209;-63
2023/02/15 08:43:58;;;;;;;11.83;8.50;;;2.80;99.90;;;;;;5053449;28;20681;-63
2023/02/15 08:46:27;;;;;;;11.50;9.03;;;3.00;99.90;;;;;;5053779;28;20236;-63
2023/02/15 08:48:54;;;;;;;18.87;13.40;;;3.00;99.90;;;;;;5053065;28;20213;-62
2023/02/15 08:51:24;;;;;;;10.83;8.93;;;3.00;99.90;;;;;;5053510;28;20209;-62
2023/02/15 08:53:52;;;;;;;12.20;7.93;;;3.10;99.90;;;;;;5053365;28;20673;-62
2023/02/15 08:56:21;;;;;;;9.80;8.30;;;3.10;99.90;;;;;;5053271;28;20322;-62
2023/02/15 08:58:48;;;;;;;23.57;14.80;;;2.80;99.90;;;;;;5053394;28;20212;-62
2023/02/15 09:01:17;;;;;;;11.17;8.97;;;2.80;99.90;;;;;;5053388;28;20206;-63
2023/02/15 09:03:45;;;;;;;11.77;8.87;;;3.00;99.90;;;;;;5053584;28;20206;-62
2023/02/15 09:06:13;;;;;;;12.50;9.33;;;3.20;99.90;;;;;;5053655;28;20221;-63
2023/02/15 09:08:41;;;;;;;11.67;9.27;;;3.30;99.90;;;;;;5052978;28;20209;-63
2023/02/15 09:11:10;;;;;;;15.00;10.00;;;3.30;99.90;;;;;;5049426;28;20685;-70
2023/02/15 09:13:37;;;;;;;13.17;9.47;;;3.20;99.90;;;;;;5051000;28;20210;-63
2023/02/15 09:16:06;;;;;;;14.43;10.67;;;3.20;99.90;;;;;;5051109;28;20229;-65
2023/02/15 09:18:36;;;;;;;20.60;14.67;;;3.40;99.90;;;;;;5051649;28;20210;-63
2023/02/15 09:21:10;;;;;;;13.00;10.50;;;3.30;99.90;;;;;;5051719;28;20669;-64
2023/02/15 09:23:37;;;;;;;14.07;10.37;;;3.50;99.90;;;;;;5051612;28;20197;-63
2023/02/15 09:26:09;;;;;;;12.87;10.03;;;3.70;99.90;;;;;;5050907;28;20579;-62
2023/02/15 09:28:36;;;;;;;12.73;10.43;;;3.80;99.90;;;;;;5051305;28;20276;-62
2023/02/15 09:31:09;;;;;;;15.60;10.67;;;3.90;99.90;;;;;;5051553;28;20214;-64
2023/02/15 09:33:36;;;;;;;14.20;10.63;;;4.10;99.90;;;;;;5051129;28;20220;-63
2023/02/15 09:36:03;;;;;;;13.70;10.40;;;4.30;99.90;;;;;;5051177;28;20230;-62
2023/02/15 09:38:30;;;;;;;15.20;10.53;;;4.30;99.90;;;;;;5050865;28;20209;-62
2023/02/15 09:41:09;;;;;;;11.67;9.23;;;4.30;99.90;;;;;;5051492;28;20245;-63
2023/02/15 09:43:43;;;;;;;12.20;9.70;;;4.40;99.90;;;;;;5051344;28;20708;-64
2023/02/15 09:46:28;;;;;;;12.47;9.90;;;4.60;99.90;;;;;;5051278;28;20712;-63
2023/02/15 09:49:00;;;;;;;14.53;9.40;;;4.60;99.90;;;;;;5050957;28;20201;-63
2023/02/15 09:51:54;;;;;;;12.20;9.23;;;4.70;99.90;;;;;;5050981;28;20233;-63
2023/02/15 09:54:33;;;;;;;10.83;9.17;;;4.70;99.90;;;;;;5051298;28;20275;-63
2023/02/15 09:57:11;;;;;;;12.73;9.87;;;4.90;99.90;;;;;;5050996;28;20766;-63
2023/02/15 09:59:44;;;;;;;12.30;10.10;;;5.10;99.90;;;;;;5050885;28;20557;-63
2023/02/15 10:02:25;;;;;;;12.67;10.20;;;5.20;99.90;;;;;;5050940;28;20201;-63
2023/02/15 10:05:07;;;;;;;14.87;10.90;;;5.20;99.90;;;;;;5051210;28;20206;-63
2023/02/15 10:08:01;;;;;;;17.00;13.23;;;5.40;99.90;;;;;;5051183;28;20209;-64
2023/02/15 10:10:34;;;;;;;13.37;10.63;;;5.50;99.90;;;;;;5051117;28;20297;-65
2023/02/15 10:13:16;;;;;;;14.60;10.37;;;5.70;99.90;;;;;;5051393;28;20213;-65
2023/02/15 10:15:58;;;;;;;13.80;10.00;;;5.90;99.90;;;;;;5050994;28;20228;-65
2023/02/15 10:18:39;;;;;;;12.73;10.33;;;6.10;99.90;;;;;;5050791;28;20209;-65
2023/02/15 10:21:20;;;;;;;16.90;11.30;;;6.30;99.90;;;;;;5050975;28;20205;-65
2023/02/15 10:24:01;;;;;;;13.70;10.97;;;6.40;99.90;;;;;;5051853;28;20216;-67
2023/02/15 10:26:37;;;;;;;17.57;10.77;;;6.40;99.90;;;;;;5051326;28;20283;-66
2023/02/15 10:29:10;;;;;;;17.43;11.73;;;6.40;99.90;;;;;;5051186;28;20212;-67
2023/02/15 10:31:45;;;;;;;15.57;10.90;;;6.60;99.90;;;;;;5051822;28;20251;-65
2023/02/15 10:34:17;;;;;;;13.83;10.50;;;6.60;99.90;;;;;;5051238;28;20205;-66
2023/02/15 10:37:23;;;;;;;18.23;11.53;;;6.50;99.90;;;;;;5051153;28;20549;-64
2023/02/15 10:40:01;;;;;;;17.80;10.17;;;6.50;99.90;;;;;;5046654;28;20213;-63
2023/02/15 10:42:38;;;;;;;15.30;10.97;;;6.70;99.90;;;;;;5051797;28;20205;-62
2023/02/15 10:45:18;;;;;;;15.10;10.87;;;6.70;99.90;;;;;;5051284;28;20240;-63
2023/02/15 10:48:04;;;;;;;17.43;11.17;;;7.00;99.90;;;;;;5051404;28;20217;-63
2023/02/15 10:50:45;;;;;;;16.23;11.30;;;7.20;99.90;;;;;;5051304;28;20206;-62
2023/02/15 10:53:27;;;;;;;15.60;11.20;;;7.30;99.90;;;;;;5050600;28;20288;-64
2023/02/15 10:56:00;;;;;;;15.83;10.90;;;7.50;99.90;;;;;;5041395;28;20321;-65
2023/02/15 10:58:45;;;;;;;17.43;11.47;;;7.50;99.90;;;;;;5050796;28;20216;-67
2023/02/15 11:01:19;;;;;;;16.30;11.30;;;7.40;99.90;;;;;;5050986;28;20208;-66
2023/02/15 11:04:15;;;;;;;14.47;10.90;;;7.50;99.90;;;;;;5050718;28;20209;-67
2023/02/15 11:06:51;;;;;;;15.50;11.73;;;7.70;99.90;;;;;;5051049;28;20226;-68
2023/02/15 11:09:20;;;;;;;13.53;10.47;;;7.90;99.90;;;;;;5050804;28;20236;-66
2023/02/15 11:11:51;;;;;;;16.17;11.47;;;8.10;99.90;;;;;;5051479;28;20247;-65
2023/02/15 11:14:28;;;;;;;13.67;10.57;;;8.30;99.90;;;;;;5051142;28;20205;-67
2023/02/15 11:17:00;;;;;;;44.57;32.30;;;8.50;99.90;;;;;;5051246;28;20237;-68
2023/02/15 11:19:34;;;;;;;15.70;10.57;;;8.50;99.90;;;;;;5051059;28;20264;-69
2023/02/15 11:22:04;;;;;;;13.57;10.20;;;8.60;99.90;;;;;;5052921;28;20583;-69
2023/02/15 11:24:37;;;;;;;13.53;10.70;;;8.60;99.90;;;;;;5052839;28;20190;-68
2023/02/15 11:27:06;;;;;;;12.17;10.33;;;8.50;99.90;;;;;;5050983;28;20327;-66
2023/02/15 11:29:36;;;;;;;15.70;11.07;;;8.60;99.90;;;;;;5050424;28;20206;-69
2023/02/15 11:32:15;;;;;;;14.60;11.13;;;8.70;99.90;;;;;;5050680;28;20206;-65
2023/02/15 11:34:51;;;;;;;14.93;11.10;;;8.70;99.90;;;;;;5050616;28;20205;-67
2023/02/15 11:37:22;;;;;;;14.13;11.10;;;8.90;99.90;;;;;;5050480;28;20564;-67
2023/02/15 11:39:54;;;;;;;14.30;11.03;;;8.90;99.90;;;;;;5052453;28;20213;-68
2023/02/15 11:42:24;;;;;;;14.30;10.87;;;9.00;99.90;;;;;;5054499;28;20217;-67
2023/02/15 11:45:00;;;;;;;16.07;11.90;;;9.20;99.90;;;;;;5054535;28;20267;-67
2023/02/15 11:47:27;;;;;;;15.10;10.83;;;9.10;99.90;;;;;;5054901;28;20208;-66
2023/02/15 11:49:55;;;;;;;14.77;11.00;;;9.10;99.90;;;;;;5054003;28;20252;-69
2023/02/15 11:52:22;;;;;;;12.77;10.57;;;9.20;99.90;;;;;;5054474;28;20296;-66
2023/02/15 11:54:50;;;;;;;11.17;9.97;;;9.40;99.90;;;;;;5054348;28;20210;-66
2023/02/15 11:57:23;;;;;;;13.63;10.23;;;9.70;99.90;;;;;;5054337;28;20229;-66
2023/02/15 11:59:54;;;;;;;12.43;10.03;;;9.90;99.90;;;;;;5053946;28;20205;-66
2023/02/15 12:02:22;;;;;;;13.13;11.37;;;10.10;99.90;;;;;;5054298;28;20267;-67
2023/02/15 12:04:53;;;;;;;13.23;11.60;;;10.20;99.90;;;;;;5052612;28;20664;-63
2023/02/15 12:07:25;;;;;;;13.17;10.60;;;10.10;99.90;;;;;;5053649;28;20556;-63
2023/02/15 12:09:57;;;;;;;15.30;10.80;;;10.10;99.90;;;;;;5053926;28;20202;-64
2023/02/15 12:12:26;;;;;;;13.53;10.93;;;9.90;99.90;;;;;;5054008;28;20241;-63
2023/02/15 12:14:54;;;;;;;15.47;11.00;;;9.80;99.90;;;;;;5053245;28;20269;-63
2023/02/15 12:17:24;;;;;;;17.17;11.27;;;9.60;99.90;;;;;;5053883;28;20318;-63
2023/02/15 12:19:53;;;;;;;14.37;11.20;;;9.50;99.90;;;;;;5053797;28;20228;-62
2023/02/15 12:22:25;;;;;;;14.70;10.90;;;9.50;99.90;;;;;;5053722;28;20210;-66
2023/02/15 12:24:55;;;;;;;15.80;12.13;;;9.70;99.90;;;;;;5053549;28;20209;-66
2023/02/15 12:27:27;;;;;;;15.83;12.10;;;9.80;99.90;;;;;;5052925;28;20308;-67
2023/02/15 12:29:58;;;;;;;13.60;10.53;;;9.90;99.90;;;;;;5052786;28;20267;-68
2023/02/15 12:32:27;;;;;;;17.00;11.90;;;10.00;99.90;;;;;;5053003;28;20216;-65
2023/02/15 12:35:00;;;;;;;17.20;10.50;;;10.20;99.90;;;;;;5052849;28;20210;-64
2023/02/15 12:37:31;;;;;;;12.97;11.20;;;10.20;99.90;;;;;;5052886;28;20237;-67
2023/02/15 12:40:00;;;;;;;15.30;11.07;;;10.40;99.90;;;;;;5052537;28;20252;-66
2023/02/15 12:42:29;;;;;;;14.60;10.63;;;10.50;99.90;;;;;;5052723;28;20216;-66
2023/02/15 12:44:59;;;;;;;14.00;11.53;;;10.80;99.90;;;;;;5052840;28;20585;-69
2023/02/15 12:47:27;;;;;;;15.03;11.00;;;11.00;99.90;;;;;;5052628;28;20215;-65
2023/02/15 12:50:17;;;;;;;12.87;10.17;;;11.10;99.90;;;;;;5051974;28;20205;-65
2023/02/15 12:52:47;;;;;;;15.73;11.03;;;11.30;99.90;;;;;;5052601;28;20237;-68
2023/02/15 12:55:25;;;;;;;12.00;10.70;;;11.30;99.90;;;;;;5052094;28;20232;-67
2023/02/15 12:58:06;;;;;;;15.67;10.53;;;11.20;99.90;;;;;;5051554;28;20236;-65
2023/02/15 13:00:34;;;;;;;13.63;10.73;;;11.20;99.90;;;;;;5052379;28;20224;-67
2023/02/15 13:03:03;;;;;;;14.63;11.47;;;11.00;99.90;;;;;;5052397;28;20263;-67
2023/02/15 13:05:35;;;;;;;14.43;10.60;;;10.90;99.90;;;;;;5051303;28;20221;-67
2023/02/15 13:08:10;;;;;;;14.03;11.30;;;10.70;99.90;;;;;;5051844;28;20204;-66
2023/02/15 13:10:41;;;;;;;14.60;10.97;;;10.70;99.90;;;;;;5053321;28;20232;-67
2023/02/15 13:13:11;;;;;;;13.50;10.43;;;10.90;99.90;;;;;;5051565;28;20263;-68
2023/02/15 13:15:42;;;;;;;12.07;10.07;;;11.00;99.90;;;;;;5052264;28;20233;-67